Time;durP1;ratioP1;P1;durP2;ratioP2;P2;SDS_P1;SDS_P2;PMS_P1;PMS_P2;Temp;Humidity;BMP_temperature;BMP_pressure;BME280_temperature;BME280_humidity;BME280_pressure;Samples;Min_cycle;Max_cycle;Signal;HPM_P1;HPM_P2
2024/01/02 00:01:08;;;;;;;9.10;1.70;;;9.90;99.90;;;;;;5054383;28;20675;-55
2024/01/02 00:03:34;;;;;;;4.50;1.20;;;9.90;99.90;;;;;;5054333;28;20269;-54
2024/01/02 00:06:01;;;;;;;2.43;0.90;;;10.00;99.90;;;;;;5054528;28;20213;-54
2024/01/02 00:08:28;;;;;;;3.03;1.23;;;10.00;99.90;;;;;;5054188;28;20263;-54
2024/01/02 00:10:54;;;;;;;3.07;1.33;;;10.00;99.90;;;;;;5054122;28;20228;-53
2024/01/02 00:13:23;;;;;;;5.87;1.30;;;10.00;99.90;;;;;;5053982;28;20212;-55
2024/01/02 00:15:49;;;;;;;2.90;1.33;;;10.00;99.90;;;;;;5054853;28;20274;-54
2024/01/02 00:18:16;;;;;;;5.57;1.00;;;10.00;99.90;;;;;;5054716;28;20213;-54
2024/01/02 00:20:43;;;;;;;2.37;1.20;;;10.00;99.90;;;;;;5054881;28;20201;-54
2024/01/02 00:23:10;;;;;;;4.57;1.40;;;10.00;99.90;;;;;;5054673;28;20296;-54
2024/01/02 00:25:37;;;;;;;4.50;1.23;;;10.00;99.90;;;;;;5054620;28;20226;-54
2024/01/02 00:28:04;;;;;;;3.87;0.80;;;10.00;99.90;;;;;;5054363;28;20221;-55
2024/01/02 00:30:34;;;;;;;2.53;1.07;;;10.00;99.90;;;;;;5054857;28;20570;-55
2024/01/02 00:33:03;;;;;;;3.63;1.17;;;10.00;99.90;;;;;;5054524;28;20210;-54
2024/01/02 00:35:38;;;;;;;2.10;1.17;;;10.00;99.90;;;;;;5054071;28;20287;-55
2024/01/02 00:38:05;;;;;;;3.53;1.10;;;10.10;99.90;;;;;;5053707;28;20678;-55
2024/01/02 00:40:32;;;;;;;2.40;1.10;;;10.00;99.90;;;;;;5053518;28;20202;-54
2024/01/02 00:42:59;;;;;;;4.97;1.50;;;10.00;99.90;;;;;;5053429;28;20666;-56
2024/01/02 00:45:26;;;;;;;3.97;1.03;;;9.90;99.90;;;;;;5053406;28;20227;-54
2024/01/02 00:47:54;;;;;;;4.67;1.10;;;9.90;99.90;;;;;;5053549;28;20686;-54
2024/01/02 00:50:22;;;;;;;2.73;0.80;;;10.00;99.90;;;;;;5053526;28;20198;-54
2024/01/02 00:52:49;;;;;;;2.33;0.80;;;10.00;99.90;;;;;;5053530;28;20209;-54
2024/01/02 00:55:15;;;;;;;4.63;1.03;;;9.90;99.90;;;;;;5053207;28;20485;-53
2024/01/02 00:57:42;;;;;;;5.47;1.27;;;9.90;99.90;;;;;;5053397;28;20209;-55
2024/01/02 01:00:10;;;;;;;2.73;0.87;;;10.00;99.90;;;;;;5053285;28;20259;-53
2024/01/02 01:02:37;;;;;;;4.43;0.90;;;10.00;99.90;;;;;;5052972;28;20198;-54
2024/01/02 01:05:07;;;;;;;1.13;0.70;;;10.00;99.90;;;;;;5052353;28;20241;-53
2024/01/02 01:07:33;;;;;;;5.67;0.83;;;10.00;99.90;;;;;;5053629;28;20255;-52
2024/01/02 01:10:00;;;;;;;2.77;0.90;;;10.10;99.90;;;;;;5052990;28;20213;-54
2024/01/02 01:12:27;;;;;;;3.20;1.00;;;10.20;99.90;;;;;;5053041;28;20218;-54
2024/01/02 01:14:54;;;;;;;2.30;1.00;;;10.20;99.90;;;;;;5052971;28;20240;-54
2024/01/02 01:17:20;;;;;;;3.73;1.00;;;10.20;99.90;;;;;;5052767;28;20217;-54
2024/01/02 01:19:47;;;;;;;2.27;0.87;;;10.20;99.90;;;;;;5053294;28;20275;-54
2024/01/02 01:22:15;;;;;;;4.90;1.47;;;10.10;99.90;;;;;;5052672;28;20308;-54
2024/01/02 01:24:42;;;;;;;3.73;1.33;;;10.10;99.90;;;;;;5052290;28;20586;-54
2024/01/02 01:27:08;;;;;;;2.50;0.77;;;10.10;99.90;;;;;;5052797;28;20297;-54
2024/01/02 01:29:35;;;;;;;1.20;0.60;;;10.10;99.90;;;;;;5052735;28;20197;-54
2024/01/02 01:32:02;;;;;;;1.80;0.70;;;10.20;99.90;;;;;;5052641;28;20229;-54
2024/01/02 01:34:28;;;;;;;1.70;0.63;;;10.20;99.90;;;;;;5052693;28;20228;-55
2024/01/02 01:36:55;;;;;;;2.90;1.17;;;10.20;99.90;;;;;;5052562;28;20316;-54
2024/01/02 01:39:23;;;;;;;3.10;1.10;;;10.10;99.90;;;;;;5052839;28;20592;-54
2024/01/02 01:41:50;;;;;;;1.73;0.70;;;10.10;99.90;;;;;;5052558;28;20289;-54
2024/01/02 01:44:17;;;;;;;2.77;0.93;;;10.10;99.90;;;;;;5053547;28;20658;-55
2024/01/02 01:46:43;;;;;;;3.83;0.87;;;10.20;99.90;;;;;;5052380;28;20205;-54
2024/01/02 01:49:12;;;;;;;2.20;0.70;;;10.30;99.90;;;;;;5052439;28;20201;-54
2024/01/02 01:51:41;;;;;;;3.73;1.07;;;10.20;99.90;;;;;;5051922;28;20226;-55
2024/01/02 01:54:11;;;;;;;2.40;0.77;;;10.30;99.90;;;;;;5051962;28;20225;-55
2024/01/02 01:56:40;;;;;;;3.13;0.70;;;10.40;99.90;;;;;;5052140;28;20624;-54
2024/01/02 01:59:06;;;;;;;2.80;1.20;;;10.40;99.90;;;;;;5051990;28;20201;-54
2024/01/02 02:01:34;;;;;;;3.80;0.80;;;10.50;99.90;;;;;;5051926;28;20608;-54
2024/01/02 02:04:01;;;;;;;2.03;0.80;;;10.40;99.90;;;;;;5051874;28;20310;-54
2024/01/02 02:06:28;;;;;;;2.70;1.00;;;10.50;99.90;;;;;;5036284;28;20293;-54
2024/01/02 02:08:55;;;;;;;1.73;0.80;;;10.50;99.90;;;;;;5052178;28;20258;-55
2024/01/02 02:11:22;;;;;;;1.90;0.90;;;10.50;99.90;;;;;;5051742;28;20221;-54
2024/01/02 02:13:51;;;;;;;2.70;1.23;;;10.50;99.90;;;;;;5051568;28;20788;-54
2024/01/02 02:16:17;;;;;;;2.17;0.70;;;10.50;99.90;;;;;;5051230;28;20750;-54
2024/01/02 02:18:44;;;;;;;1.53;0.87;;;10.40;99.90;;;;;;5052098;28;20217;-54
2024/01/02 02:21:11;;;;;;;1.77;0.60;;;10.30;99.90;;;;;;5052028;28;20288;-55
2024/01/02 02:23:39;;;;;;;1.27;0.60;;;10.40;99.90;;;;;;5051332;28;20214;-55
2024/01/02 02:26:06;;;;;;;0.70;0.70;;;10.40;99.90;;;;;;5051816;28;20237;-54
2024/01/02 02:28:32;;;;;;;2.73;0.70;;;10.40;99.90;;;;;;5051670;28;20212;-54
2024/01/02 02:30:59;;;;;;;1.43;0.60;;;10.40;99.90;;;;;;5051347;28;20310;-55
2024/01/02 02:33:25;;;;;;;1.30;0.83;;;10.40;99.90;;;;;;5051277;28;20202;-55
2024/01/02 02:35:52;;;;;;;1.93;0.70;;;10.40;99.90;;;;;;5051724;28;20209;-55
2024/01/02 02:38:19;;;;;;;1.80;0.80;;;10.40;99.90;;;;;;5051661;28;20209;-54
2024/01/02 02:40:47;;;;;;;2.57;0.60;;;10.30;99.90;;;;;;5051550;28;20509;-54
2024/01/02 02:43:13;;;;;;;1.83;0.60;;;10.30;99.90;;;;;;5051117;28;20675;-55
2024/01/02 02:45:40;;;;;;;1.03;0.50;;;10.30;99.90;;;;;;5051288;28;20302;-54
2024/01/02 02:48:08;;;;;;;1.90;0.83;;;10.30;99.90;;;;;;5051511;28;20210;-55
2024/01/02 02:50:34;;;;;;;2.87;0.70;;;10.40;99.90;;;;;;5051655;28;20206;-54
2024/01/02 02:53:01;;;;;;;1.40;0.70;;;10.50;99.90;;;;;;5050928;28;20718;-54
2024/01/02 02:55:28;;;;;;;0.77;0.43;;;10.50;99.90;;;;;;5034824;28;20237;-54
2024/01/02 02:57:56;;;;;;;1.53;0.60;;;10.50;99.90;;;;;;5051369;28;20627;-55
2024/01/02 03:00:22;;;;;;;2.57;0.87;;;10.50;99.90;;;;;;5050959;28;20213;-55
2024/01/02 03:02:49;;;;;;;0.97;0.50;;;10.50;99.90;;;;;;5051123;28;20202;-54
2024/01/02 03:05:16;;;;;;;2.57;0.77;;;10.50;99.90;;;;;;5050848;28;20237;-54
2024/01/02 03:07:43;;;;;;;1.47;0.60;;;10.50;99.90;;;;;;5050951;28;20297;-54
2024/01/02 03:10:13;;;;;;;0.73;0.40;;;10.50;99.90;;;;;;5050794;28;20206;-54
2024/01/02 03:12:40;;;;;;;1.63;0.40;;;10.50;99.90;;;;;;5050543;28;20244;-56
2024/01/02 03:15:09;;;;;;;1.70;0.50;;;10.60;99.90;;;;;;5051150;28;20233;-54
2024/01/02 03:17:36;;;;;;;0.97;0.40;;;10.50;99.90;;;;;;5051182;28;20217;-54
2024/01/02 03:20:03;;;;;;;1.30;0.70;;;10.60;99.90;;;;;;5050737;28;20590;-55
2024/01/02 03:22:30;;;;;;;1.33;0.53;;;10.50;99.90;;;;;;5034614;28;20296;-54
2024/01/02 03:24:56;;;;;;;1.77;0.37;;;10.50;99.90;;;;;;5050526;28;20225;-54
2024/01/02 03:27:23;;;;;;;0.67;0.40;;;10.50;99.90;;;;;;5049821;28;20585;-54
2024/01/02 03:29:50;;;;;;;1.73;0.70;;;10.50;99.90;;;;;;5050775;28;20202;-54
2024/01/02 03:32:18;;;;;;;2.63;0.50;;;10.50;99.90;;;;;;5050538;28;20221;-54
2024/01/02 03:34:44;;;;;;;1.87;0.50;;;10.50;99.90;;;;;;5050541;28;20298;-53
2024/01/02 03:37:13;;;;;;;1.57;0.40;;;10.40;99.90;;;;;;5050395;28;20209;-54
2024/01/02 03:39:40;;;;;;;1.03;0.57;;;10.50;99.90;;;;;;5050498;28;20285;-55
2024/01/02 03:42:06;;;;;;;1.07;0.37;;;10.60;99.90;;;;;;5050124;28;20206;-54
2024/01/02 03:44:33;;;;;;;1.13;0.50;;;10.60;99.90;;;;;;5050400;28;20710;-54
2024/01/02 03:47:00;;;;;;;2.40;0.80;;;10.60;99.90;;;;;;5050743;28;20282;-54
2024/01/02 03:49:28;;;;;;;0.63;0.50;;;10.60;99.90;;;;;;5050727;28;20229;-54
2024/01/02 03:51:54;;;;;;;1.27;0.67;;;10.50;99.90;;;;;;5050121;28;20308;-53
2024/01/02 03:54:21;;;;;;;0.63;0.50;;;10.50;99.90;;;;;;5049895;28;20229;-55
2024/01/02 03:56:48;;;;;;;1.30;0.40;;;10.50;99.90;;;;;;5050805;28;20255;-54
2024/01/02 03:59:14;;;;;;;1.63;0.53;;;10.50;99.90;;;;;;5050385;28;20210;-53
2024/01/02 04:01:44;;;;;;;2.10;0.87;;;10.30;99.90;;;;;;5050584;28;20214;-54
2024/01/02 04:04:11;;;;;;;4.20;2.20;;;10.30;99.90;;;;;;5050281;28;20236;-53
2024/01/02 04:06:39;;;;;;;1.13;0.60;;;10.30;99.90;;;;;;5050587;28;20258;-54
2024/01/02 04:09:06;;;;;;;0.40;0.30;;;10.40;99.90;;;;;;5050471;28;20271;-55
2024/01/02 04:11:32;;;;;;;0.97;0.40;;;10.30;99.90;;;;;;5050548;28;20205;-55
2024/01/02 04:13:59;;;;;;;1.73;0.40;;;10.30;99.90;;;;;;5050826;28;20221;-53
2024/01/02 04:16:25;;;;;;;0.43;0.30;;;10.20;99.90;;;;;;5050603;28;20218;-54
2024/01/02 04:18:52;;;;;;;0.90;0.30;;;10.20;99.90;;;;;;5050805;28;20572;-54
2024/01/02 04:21:19;;;;;;;0.63;0.30;;;10.20;99.90;;;;;;5050290;28;20633;-54
2024/01/02 04:23:47;;;;;;;1.00;0.50;;;10.10;99.90;;;;;;5075193;22;20241;-59
2024/01/02 04:26:14;;;;;;;0.97;0.30;;;10.10;99.90;;;;;;5039459;28;20214;-59
2024/01/02 04:28:40;;;;;;;2.30;0.30;;;10.10;99.90;;;;;;5042391;28;20202;-59
2024/01/02 04:31:08;;;;;;;1.37;0.37;;;10.10;99.90;;;;;;5041782;28;20586;-59
2024/01/02 04:33:35;;;;;;;0.40;0.30;;;10.10;99.90;;;;;;5038446;28;20225;-60
2024/01/02 04:36:01;;;;;;;0.57;0.33;;;10.10;99.90;;;;;;5049700;28;20226;-59
2024/01/02 04:38:28;;;;;;;1.13;0.30;;;10.20;99.90;;;;;;5052019;28;20255;-61
2024/01/02 04:40:57;;;;;;;0.57;0.20;;;10.20;99.90;;;;;;5054145;28;20209;-60
2024/01/02 04:43:24;;;;;;;1.23;0.30;;;10.10;99.90;;;;;;5053625;28;20205;-59
2024/01/02 04:45:51;;;;;;;0.10;0.10;;;10.10;99.90;;;;;;5053645;28;20249;-60
2024/01/02 04:48:18;;;;;;;0.57;0.40;;;10.20;99.90;;;;;;5053578;28;20205;-61
2024/01/02 04:50:45;;;;;;;0.87;0.20;;;10.10;99.90;;;;;;5053563;28;20209;-59
2024/01/02 04:53:11;;;;;;;0.20;0.20;;;10.00;99.90;;;;;;5053398;28;20225;-59
2024/01/02 04:55:38;;;;;;;0.77;0.30;;;10.00;99.90;;;;;;5053565;28;20229;-61
2024/01/02 04:58:06;;;;;;;1.67;0.20;;;10.00;99.90;;;;;;5053720;28;20287;-59
2024/01/02 05:00:33;;;;;;;0.13;0.10;;;10.00;99.90;;;;;;5037450;28;20607;-59
2024/01/02 05:03:00;;;;;;;1.27;0.50;;;9.90;99.90;;;;;;5053358;28;20221;-59
2024/01/02 05:05:27;;;;;;;0.50;0.40;;;9.90;99.90;;;;;;5053246;28;20225;-59
2024/01/02 05:07:54;;;;;;;1.03;0.40;;;9.90;99.90;;;;;;5053627;28;20209;-58
2024/01/02 05:10:20;;;;;;;0.40;0.20;;;9.90;99.90;;;;;;5053422;28;20687;-59
2024/01/02 05:12:50;;;;;;;2.37;0.63;;;9.80;99.90;;;;;;5052987;28;20664;-61
2024/01/02 05:15:18;;;;;;;0.83;0.50;;;9.80;99.90;;;;;;5052958;28;20229;-61
2024/01/02 05:17:45;;;;;;;0.27;0.20;;;9.80;99.90;;;;;;5052983;28;20202;-60
2024/01/02 05:20:12;;;;;;;0.33;0.20;;;9.80;99.90;;;;;;5053107;28;20305;-60
2024/01/02 05:22:39;;;;;;;0.20;0.20;;;9.80;99.90;;;;;;5053211;28;20209;-61
2024/01/02 05:25:06;;;;;;;0.87;0.37;;;9.80;99.90;;;;;;5052752;28;20786;-61
2024/01/02 05:27:33;;;;;;;0.33;0.30;;;9.80;99.90;;;;;;5036838;28;20201;-60
2024/01/02 05:30:00;;;;;;;1.00;0.43;;;9.80;99.90;;;;;;5052749;28;20694;-60
2024/01/02 05:32:28;;;;;;;0.33;0.30;;;9.80;99.90;;;;;;5052499;28;20291;-59
2024/01/02 05:34:55;;;;;;;1.17;0.50;;;9.80;99.90;;;;;;5053247;28;20233;-59
2024/01/02 05:37:21;;;;;;;0.33;0.30;;;9.80;99.90;;;;;;5052619;28;20210;-60
2024/01/02 05:39:48;;;;;;;0.80;0.50;;;9.80;99.90;;;;;;5052847;28;20236;-60
2024/01/02 05:42:15;;;;;;;0.67;0.33;;;9.90;99.90;;;;;;5052307;28;20202;-60
2024/01/02 05:44:41;;;;;;;1.00;0.53;;;9.90;99.90;;;;;;5052506;28;20225;-60
2024/01/02 05:47:08;;;;;;;0.70;0.37;;;9.90;99.90;;;;;;5052478;28;20678;-60
2024/01/02 05:49:36;;;;;;;1.57;0.40;;;9.90;99.90;;;;;;5052026;28;20297;-61
2024/01/02 05:52:03;;;;;;;1.43;0.40;;;9.90;99.90;;;;;;5052706;28;20209;-60
2024/01/02 05:54:30;;;;;;;0.87;0.60;;;9.90;99.90;;;;;;5052321;28;20229;-60
2024/01/02 05:56:56;;;;;;;2.27;1.13;;;9.90;99.90;;;;;;5052415;28;20205;-60
2024/01/02 05:59:23;;;;;;;0.87;0.57;;;9.90;99.90;;;;;;5052095;28;20210;-60
2024/01/02 06:01:50;;;;;;;0.37;0.37;;;9.90;99.90;;;;;;5052056;28;20667;-60
2024/01/02 06:04:17;;;;;;;1.70;0.73;;;9.90;99.90;;;;;;5052014;28;20239;-60
2024/01/02 06:06:45;;;;;;;1.60;1.20;;;9.90;99.90;;;;;;5052381;28;20210;-62
2024/01/02 06:09:12;;;;;;;1.13;0.67;;;9.90;99.90;;;;;;5052125;28;20291;-60
2024/01/02 06:11:38;;;;;;;0.60;0.50;;;9.90;99.90;;;;;;5052395;28;20237;-60
2024/01/02 06:14:05;;;;;;;0.90;0.70;;;9.90;99.90;;;;;;5051885;28;20699;-60
2024/01/02 06:16:32;;;;;;;1.23;0.60;;;9.90;99.90;;;;;;5051973;28;20201;-62
2024/01/02 06:18:59;;;;;;;1.17;0.40;;;9.90;99.90;;;;;;5052004;28;20213;-59
2024/01/02 06:21:25;;;;;;;1.20;0.90;;;9.90;99.90;;;;;;5051753;28;20209;-59
2024/01/02 06:23:53;;;;;;;1.20;0.73;;;9.90;99.90;;;;;;5051487;28;20212;-61
2024/01/02 06:26:20;;;;;;;0.50;0.50;;;9.90;99.90;;;;;;5051760;28;20223;-61
2024/01/02 06:28:47;;;;;;;1.20;0.67;;;9.90;99.90;;;;;;5051739;28;20602;-59
2024/01/02 06:31:14;;;;;;;1.20;0.63;;;9.90;99.90;;;;;;5051685;28;20287;-60
2024/01/02 06:33:44;;;;;;;0.70;0.40;;;9.90;99.90;;;;;;5051371;28;20222;-60
2024/01/02 06:36:11;;;;;;;0.30;0.30;;;9.80;99.90;;;;;;5051556;28;20251;-62
2024/01/02 06:38:38;;;;;;;0.53;0.30;;;9.90;99.90;;;;;;5051608;28;20202;-60
2024/01/02 06:41:06;;;;;;;1.10;0.57;;;9.80;99.90;;;;;;5051311;28;20291;-60
2024/01/02 06:43:33;;;;;;;3.20;1.73;;;9.90;99.90;;;;;;5051418;28;20205;-60
2024/01/02 06:46:01;;;;;;;2.07;0.87;;;9.90;99.90;;;;;;5051331;28;20229;-59
2024/01/02 06:48:28;;;;;;;1.33;0.50;;;9.80;99.90;;;;;;5051254;28;20287;-59
2024/01/02 06:50:54;;;;;;;0.57;0.50;;;9.80;99.90;;;;;;5051257;28;20209;-61
2024/01/02 06:53:21;;;;;;;0.70;0.40;;;9.90;99.90;;;;;;5050958;28;20226;-60
2024/01/02 06:55:48;;;;;;;0.73;0.50;;;9.90;99.90;;;;;;5051736;28;20225;-60
2024/01/02 06:58:16;;;;;;;0.67;0.50;;;9.90;99.90;;;;;;5051146;28;20227;-60
2024/01/02 07:00:43;;;;;;;0.87;0.50;;;9.90;99.90;;;;;;5051117;28;20217;-60
2024/01/02 07:03:09;;;;;;;1.83;0.87;;;10.00;99.90;;;;;;5051029;28;20296;-60
2024/01/02 07:05:36;;;;;;;2.70;1.83;;;9.90;99.90;;;;;;5051137;28;20253;-59
2024/01/02 07:08:03;;;;;;;1.20;0.73;;;10.00;99.90;;;;;;5051003;28;20632;-60
2024/01/02 07:10:30;;;;;;;1.90;0.50;;;10.00;99.90;;;;;;5051018;28;20205;-59
2024/01/02 07:12:57;;;;;;;0.73;0.30;;;10.10;99.90;;;;;;5051039;28;20228;-61
2024/01/02 07:15:25;;;;;;;1.47;1.00;;;10.20;99.90;;;;;;5050679;28;20279;-59
2024/01/02 07:17:51;;;;;;;0.63;0.50;;;10.20;99.90;;;;;;5050978;28;20591;-59
2024/01/02 07:20:20;;;;;;;2.20;1.60;;;10.10;99.90;;;;;;5051011;28;20209;-59
2024/01/02 07:22:47;;;;;;;1.33;0.80;;;10.10;99.90;;;;;;5050896;28;20229;-59
2024/01/02 07:25:14;;;;;;;2.00;0.97;;;10.20;99.90;;;;;;5050574;28;20252;-61
2024/01/02 07:27:40;;;;;;;1.07;0.73;;;10.20;99.90;;;;;;5051500;28;20616;-60
2024/01/02 07:30:08;;;;;;;1.70;1.10;;;10.20;99.90;;;;;;5051433;28;20236;-60
2024/01/02 07:32:36;;;;;;;0.33;0.33;;;10.30;99.90;;;;;;5050641;28;20293;-60
2024/01/02 07:35:03;;;;;;;0.50;0.30;;;10.30;99.90;;;;;;5050839;28;20613;-59
2024/01/02 07:37:31;;;;;;;1.37;0.90;;;10.30;99.90;;;;;;5050915;28;20266;-60
2024/01/02 07:39:58;;;;;;;0.93;0.60;;;10.30;99.90;;;;;;5050968;28;20684;-59
2024/01/02 07:42:25;;;;;;;0.93;0.70;;;10.40;99.90;;;;;;5050616;28;20206;-60
2024/01/02 07:44:52;;;;;;;3.70;1.40;;;10.40;99.90;;;;;;5050933;28;20226;-60
2024/01/02 07:47:18;;;;;;;1.17;0.70;;;10.40;99.90;;;;;;5050602;28;20209;-60
2024/01/02 07:49:46;;;;;;;0.60;0.50;;;10.40;99.90;;;;;;5050627;28;20279;-60
2024/01/02 07:52:13;;;;;;;1.27;0.97;;;10.40;99.90;;;;;;5050373;28;20292;-60
2024/01/02 07:54:40;;;;;;;0.40;0.30;;;10.50;99.90;;;;;;5050381;28;20727;-61
2024/01/02 07:57:07;;;;;;;0.90;0.50;;;10.60;99.90;;;;;;5051050;28;20279;-60
2024/01/02 07:59:34;;;;;;;1.23;0.40;;;10.60;99.90;;;;;;5050649;28;20707;-60
2024/01/02 08:02:00;;;;;;;1.30;1.00;;;10.60;99.90;;;;;;5050338;28;20627;-60
2024/01/02 08:04:29;;;;;;;6.40;5.10;;;10.60;99.90;;;;;;5050152;28;20644;-60
2024/01/02 08:06:59;;;;;;;6.27;4.77;;;10.60;99.90;;;;;;5050582;28;20228;-61
2024/01/02 08:09:26;;;;;;;0.80;0.60;;;10.60;99.90;;;;;;5051413;28;20697;-59
2024/01/02 08:11:52;;;;;;;0.67;0.40;;;10.70;99.90;;;;;;5050982;28;20209;-60
2024/01/02 08:14:19;;;;;;;0.60;0.43;;;10.70;99.90;;;;;;5053661;28;20230;-59
2024/01/02 08:16:46;;;;;;;1.00;0.80;;;10.70;99.90;;;;;;5054293;28;20210;-60
2024/01/02 08:19:13;;;;;;;1.80;0.50;;;10.80;99.90;;;;;;5054164;28;20690;-61
2024/01/02 08:21:40;;;;;;;0.20;0.20;;;10.80;99.90;;;;;;5054116;28;20608;-60
2024/01/02 08:24:08;;;;;;;1.17;0.63;;;10.80;99.90;;;;;;5053951;28;20233;-60
2024/01/02 08:26:36;;;;;;;0.60;0.43;;;10.90;99.90;;;;;;5054002;28;20289;-60
2024/01/02 08:29:02;;;;;;;2.53;0.90;;;10.90;99.90;;;;;;5054108;28;20256;-61
2024/01/02 08:31:29;;;;;;;1.33;1.03;;;11.00;99.90;;;;;;5053756;28;20569;-60
2024/01/02 08:33:56;;;;;;;0.30;0.30;;;11.10;99.90;;;;;;5053869;28;20609;-60
2024/01/02 08:36:23;;;;;;;1.50;0.60;;;11.10;99.90;;;;;;5054029;28;20240;-60
2024/01/02 08:38:50;;;;;;;2.20;1.37;;;11.10;99.90;;;;;;5054010;28;20205;-59
2024/01/02 08:41:18;;;;;;;1.07;0.70;;;11.10;99.90;;;;;;5054153;28;20206;-62
2024/01/02 08:43:45;;;;;;;1.63;0.80;;;11.10;99.90;;;;;;5053573;28;20259;-59
2024/01/02 08:46:12;;;;;;;0.87;0.33;;;11.20;99.90;;;;;;5053615;28;20202;-58
2024/01/02 08:48:38;;;;;;;0.53;0.30;;;11.10;99.90;;;;;;5037475;28;20675;-57
2024/01/02 08:51:05;;;;;;;0.70;0.40;;;11.20;99.90;;;;;;5053750;28;20205;-59
2024/01/02 08:53:32;;;;;;;1.23;0.97;;;11.20;99.90;;;;;;5053362;28;20233;-57
2024/01/02 08:55:59;;;;;;;1.07;0.53;;;11.10;99.90;;;;;;5053553;28;20297;-58
2024/01/02 08:58:27;;;;;;;0.90;0.40;;;11.20;99.90;;;;;;5053571;28;20714;-57
2024/01/02 09:00:54;;;;;;;0.53;0.40;;;11.10;99.90;;;;;;5053679;28;20213;-57
2024/01/02 09:03:20;;;;;;;2.87;0.33;;;11.20;99.90;;;;;;5053247;28;20287;-58
2024/01/02 09:05:47;;;;;;;2.60;1.57;;;11.20;99.90;;;;;;5053504;28;20229;-60
2024/01/02 09:08:15;;;;;;;1.40;0.83;;;11.30;99.90;;;;;;5053535;28;20351;-58
2024/01/02 09:10:43;;;;;;;1.10;1.00;;;11.30;99.90;;;;;;5053249;28;20248;-60
2024/01/02 09:13:11;;;;;;;1.90;0.50;;;11.30;99.90;;;;;;5053078;28;22214;-57
2024/01/02 09:15:39;;;;;;;0.47;0.40;;;11.30;99.90;;;;;;5052900;28;20240;-58
2024/01/02 09:18:06;;;;;;;1.00;0.40;;;11.40;99.90;;;;;;5052574;28;20489;-59
2024/01/02 09:20:34;;;;;;;0.63;0.40;;;11.40;99.90;;;;;;5053206;28;20296;-59
2024/01/02 09:23:00;;;;;;;0.33;0.17;;;11.40;99.90;;;;;;5052752;28;20733;-58
2024/01/02 09:25:32;;;;;;;1.53;0.63;;;11.40;99.90;;;;;;5051671;28;20320;-59
2024/01/02 09:28:01;;;;;;;1.17;0.73;;;12.00;99.90;;;;;;5053258;28;20560;-59
2024/01/02 09:30:29;;;;;;;1.50;0.50;;;11.40;99.90;;;;;;5053225;28;20217;-59
2024/01/02 09:32:58;;;;;;;0.73;0.60;;;11.40;99.90;;;;;;5052964;28;20730;-59
2024/01/02 09:35:24;;;;;;;1.67;0.70;;;11.40;99.90;;;;;;5052735;28;20718;-59
2024/01/02 09:37:51;;;;;;;0.63;0.27;;;11.60;99.90;;;;;;5053097;28;20672;-59
2024/01/02 09:40:31;;;;;;;5.53;3.63;;;11.70;99.90;;;;;;5052647;28;20275;-60
2024/01/02 09:43:07;;;;;;;0.77;0.50;;;11.70;99.90;;;;;;5052468;28;20284;-59
2024/01/02 09:45:45;;;;;;;0.27;0.23;;;11.60;99.90;;;;;;5052381;28;20229;-60
2024/01/02 09:48:36;;;;;;;0.30;0.23;;;11.60;99.90;;;;;;5052979;28;20216;-59
2024/01/02 09:51:09;;;;;;;0.87;0.50;;;11.70;99.90;;;;;;5042531;28;20217;-58
2024/01/02 09:54:05;;;;;;;0.73;0.60;;;11.80;99.90;;;;;;5052104;28;20230;-60
2024/01/02 09:56:38;;;;;;;0.73;0.50;;;11.90;99.90;;;;;;5052477;28;20213;-60
2024/01/02 09:59:14;;;;;;;1.33;0.50;;;12.00;99.90;;;;;;5042567;28;20217;-56
2024/01/02 10:01:52;;;;;;;2.43;0.90;;;12.00;99.90;;;;;;5052050;28;20649;-57
2024/01/02 10:04:36;;;;;;;1.13;0.50;;;12.00;99.90;;;;;;5052009;28;20221;-59
2024/01/02 10:07:26;;;;;;;0.87;0.40;;;12.10;99.90;;;;;;5051961;28;20221;-57
2024/01/02 10:10:06;;;;;;;0.83;0.47;;;12.10;99.90;;;;;;5039017;28;20380;-57
2024/01/02 10:12:44;;;;;;;0.93;0.63;;;12.20;99.90;;;;;;5051855;28;20212;-57
2024/01/02 10:15:20;;;;;;;0.80;0.30;;;12.20;99.90;;;;;;5051825;28;20232;-58
2024/01/02 10:17:55;;;;;;;0.50;0.30;;;12.30;99.90;;;;;;5036975;28;20275;-58
2024/01/02 10:20:36;;;;;;;0.67;0.50;;;12.60;99.90;;;;;;5052136;28;20247;-57
2024/01/02 10:23:10;;;;;;;1.07;0.60;;;12.30;99.90;;;;;;5052507;28;20206;-59
2024/01/02 10:25:39;;;;;;;0.30;0.30;;;12.40;99.90;;;;;;5051888;28;20764;-59
2024/01/02 10:28:14;;;;;;;0.53;0.43;;;12.40;99.90;;;;;;5051651;28;20240;-59
2024/01/02 10:30:48;;;;;;;3.27;1.90;;;12.40;99.90;;;;;;5051514;28;20647;-60
2024/01/02 10:33:27;;;;;;;2.07;1.33;;;12.40;99.90;;;;;;5051584;28;20275;-59
2024/01/02 10:36:02;;;;;;;1.70;1.60;;;12.40;99.90;;;;;;5038894;28;20225;-59
2024/01/02 10:38:42;;;;;;;2.40;1.57;;;12.50;99.90;;;;;;5051560;28;20205;-59
2024/01/02 10:41:17;;;;;;;9.07;5.87;;;12.50;99.90;;;;;;5051738;28;20231;-59
2024/01/02 10:43:56;;;;;;;3.00;2.43;;;12.60;99.90;;;;;;5035968;28;20271;-59
2024/01/02 10:46:38;;;;;;;2.10;1.20;;;12.60;99.90;;;;;;5051734;28;20209;-59
2024/01/02 10:49:16;;;;;;;0.90;0.90;;;12.60;99.90;;;;;;5051568;28;20213;-59
2024/01/02 10:51:52;;;;;;;2.73;0.57;;;12.70;99.90;;;;;;5035493;28;20212;-60
2024/01/02 10:54:25;;;;;;;1.00;0.60;;;12.80;99.90;;;;;;5051159;28;20604;-60
2024/01/02 10:57:00;;;;;;;1.17;0.77;;;12.80;99.90;;;;;;5051486;28;20252;-58
2024/01/02 10:59:46;;;;;;;1.27;0.90;;;12.70;99.90;;;;;;5051283;28;20802;-59
2024/01/02 11:02:27;;;;;;;0.70;0.50;;;12.80;99.90;;;;;;5051362;28;20216;-64
2024/01/02 11:05:06;;;;;;;1.50;1.00;;;12.80;99.90;;;;;;5038103;28;20222;-61
2024/01/02 11:07:37;;;;;;;1.27;0.80;;;12.90;99.90;;;;;;5051098;28;20296;-61
2024/01/02 11:10:09;;;;;;;0.50;0.40;;;13.10;99.90;;;;;;5050780;28;20871;-61
2024/01/02 11:12:46;;;;;;;1.50;0.43;;;13.00;99.90;;;;;;5050733;28;20233;-61
2024/01/02 11:15:15;;;;;;;0.70;0.70;;;13.10;99.90;;;;;;5050861;28;20224;-61
2024/01/02 11:17:44;;;;;;;1.53;0.70;;;13.10;99.90;;;;;;5051147;28;20213;-62
2024/01/02 11:20:14;;;;;;;5.13;3.00;;;12.90;99.90;;;;;;5050779;28;20206;-61
2024/01/02 11:22:51;;;;;;;11.60;4.73;;;13.10;99.90;;;;;;5050640;28;20228;-62
2024/01/02 11:25:22;;;;;;;2.30;1.40;;;13.10;99.90;;;;;;5050766;28;20233;-62
2024/01/02 11:27:51;;;;;;;3.00;1.10;;;13.20;99.90;;;;;;5036224;28;20229;-61
2024/01/02 11:30:20;;;;;;;1.47;0.70;;;13.20;99.90;;;;;;5050854;28;20559;-62
2024/01/02 11:32:58;;;;;;;0.70;0.40;;;13.30;99.90;;;;;;5035730;28;20284;-61
2024/01/02 11:35:31;;;;;;;1.47;0.73;;;13.40;99.90;;;;;;5050595;28;20228;-63
2024/01/02 11:38:08;;;;;;;0.97;0.70;;;13.30;99.90;;;;;;5050856;28;20675;-63
2024/01/02 11:40:47;;;;;;;1.57;0.83;;;13.40;99.90;;;;;;5050761;28;20205;-61
2024/01/02 11:43:24;;;;;;;2.13;1.37;;;13.50;99.90;;;;;;5050212;28;20287;-63
2024/01/02 11:45:56;;;;;;;0.77;0.30;;;13.50;99.90;;;;;;5036430;28;20595;-63
2024/01/02 11:48:40;;;;;;;0.70;0.30;;;13.50;99.90;;;;;;5052821;28;20229;-62
2024/01/02 11:51:15;;;;;;;1.33;0.80;;;13.40;99.90;;;;;;5055311;28;20202;-61
2024/01/02 11:54:00;;;;;;;0.60;0.40;;;13.40;99.90;;;;;;5054659;28;20204;-63
2024/01/02 11:56:29;;;;;;;1.07;0.53;;;13.50;99.90;;;;;;5054884;28;20290;-60
2024/01/02 11:59:08;;;;;;;0.50;0.40;;;13.40;99.90;;;;;;5054958;28;20251;-61
2024/01/02 12:01:47;;;;;;;0.53;0.30;;;13.40;99.90;;;;;;5054531;28;20638;-59
2024/01/02 12:04:35;;;;;;;3.47;1.10;;;13.40;99.90;;;;;;5054668;28;20249;-61
2024/01/02 12:07:10;;;;;;;0.97;0.50;;;13.40;99.90;;;;;;5043063;28;20214;-60
2024/01/02 12:09:43;;;;;;;0.30;0.20;;;13.40;99.90;;;;;;5054601;28;20201;-59
2024/01/02 12:12:23;;;;;;;0.87;0.50;;;13.20;99.90;;;;;;5054315;28;20206;-60
2024/01/02 12:15:10;;;;;;;2.03;1.43;;;13.10;99.90;;;;;;5039689;28;20232;-59
2024/01/02 12:17:44;;;;;;;1.00;0.70;;;13.00;99.90;;;;;;5054476;28;20292;-59
2024/01/02 12:20:12;;;;;;;0.60;0.40;;;12.90;99.90;;;;;;5054156;28;20635;-59
2024/01/02 12:22:40;;;;;;;0.50;0.40;;;12.80;99.90;;;;;;5054023;28;20680;-60
2024/01/02 12:25:08;;;;;;;0.47;0.47;;;12.70;99.90;;;;;;5053684;28;20229;-59
2024/01/02 12:27:37;;;;;;;0.53;0.37;;;12.70;99.90;;;;;;5054192;28;20657;-59
2024/01/02 12:30:07;;;;;;;0.50;0.13;;;12.80;99.90;;;;;;5054172;28;20288;-59
2024/01/02 12:32:48;;;;;;;0.40;0.30;;;12.70;99.90;;;;;;5053754;28;20580;-60
2024/01/02 12:35:27;;;;;;;1.13;0.77;;;12.70;99.90;;;;;;5054118;28;20249;-60
2024/01/02 12:38:06;;;;;;;0.90;0.60;;;12.80;99.90;;;;;;5040092;28;20208;-59
2024/01/02 12:40:38;;;;;;;0.50;0.50;;;12.80;99.90;;;;;;5053796;28;20561;-59
2024/01/02 12:43:08;;;;;;;0.50;0.40;;;12.80;99.90;;;;;;5053554;28;20682;-59
2024/01/02 12:45:37;;;;;;;0.40;0.27;;;12.80;99.90;;;;;;5053335;28;20221;-59
2024/01/02 12:48:06;;;;;;;0.77;0.40;;;12.80;99.90;;;;;;5053782;28;20213;-59
2024/01/02 12:50:36;;;;;;;0.27;0.20;;;12.70;99.90;;;;;;5054025;28;20212;-59
2024/01/02 12:53:08;;;;;;;0.60;0.37;;;12.80;99.90;;;;;;5053932;28;20288;-59
2024/01/02 12:55:42;;;;;;;0.60;0.50;;;12.80;99.90;;;;;;5053463;28;20742;-59
2024/01/02 12:58:10;;;;;;;0.30;0.30;;;12.80;99.90;;;;;;5053984;28;20205;-60